sensor_id;sensor_type;location;lat;lon;timestamp;P1;durP1;ratioP1;P2;durP2;ratioP2
76731;SDS011;65656;51.130;13.658;2022-12-17T00:03:04;55.47;;;50.10;;
76731;SDS011;65656;51.130;13.658;2022-12-17T00:07:05;55.90;;;47.05;;
76731;SDS011;65656;51.130;13.658;2022-12-17T00:11:07;51.22;;;46.35;;
76731;SDS011;65656;51.130;13.658;2022-12-17T00:15:10;49.38;;;44.50;;
76731;SDS011;65656;51.130;13.658;2022-12-17T00:19:11;68.03;;;61.72;;
76731;SDS011;65656;51.130;13.658;2022-12-17T00:23:13;57.45;;;51.67;;
76731;SDS011;65656;51.130;13.658;2022-12-17T00:27:14;65.50;;;59.70;;
76731;SDS011;65656;51.130;13.658;2022-12-17T00:31:17;61.25;;;55.13;;
76731;SDS011;65656;51.130;13.658;2022-12-17T00:35:19;51.72;;;45.63;;
76731;SDS011;65656;51.130;13.658;2022-12-17T00:39:20;58.17;;;51.97;;
76731;SDS011;65656;51.130;13.658;2022-12-17T00:43:22;63.78;;;57.42;;
76731;SDS011;65656;51.130;13.658;2022-12-17T00:47:25;64.70;;;58.60;;
76731;SDS011;65656;51.130;13.658;2022-12-17T00:51:26;54.50;;;48.83;;
76731;SDS011;65656;51.130;13.658;2022-12-17T00:55:28;55.97;;;48.25;;
76731;SDS011;65656;51.130;13.658;2022-12-17T00:59:30;73.22;;;66.68;;
76731;SDS011;65656;51.130;13.658;2022-12-17T01:03:32;97.72;;;89.95;;
76731;SDS011;65656;51.130;13.658;2022-12-17T01:07:35;64.85;;;58.63;;
76731;SDS011;65656;51.130;13.658;2022-12-17T01:11:36;55.75;;;50.25;;
76731;SDS011;65656;51.130;13.658;2022-12-17T01:15:38;69.97;;;63.78;;
76731;SDS011;65656;51.130;13.658;2022-12-17T01:19:41;71.95;;;65.40;;
76731;SDS011;65656;51.130;13.658;2022-12-17T01:23:42;65.35;;;59.08;;
76731;SDS011;65656;51.130;13.658;2022-12-17T01:27:46;49.75;;;44.90;;
76731;SDS011;65656;51.130;13.658;2022-12-17T01:31:48;79.93;;;73.00;;
76731;SDS011;65656;51.130;13.658;2022-12-17T01:35:54;60.40;;;54.17;;
76731;SDS011;65656;51.130;13.658;2022-12-17T01:39:56;57.05;;;51.35;;
76731;SDS011;65656;51.130;13.658;2022-12-17T01:43:58;81.57;;;74.95;;
76731;SDS011;65656;51.130;13.658;2022-12-17T01:48:00;80.32;;;72.93;;
76731;SDS011;65656;51.130;13.658;2022-12-17T01:52:05;54.50;;;48.60;;
76731;SDS011;65656;51.130;13.658;2022-12-17T01:56:07;55.58;;;49.22;;
76731;SDS011;65656;51.130;13.658;2022-12-17T02:00:10;61.83;;;56.10;;
76731;SDS011;65656;51.130;13.658;2022-12-17T02:04:13;55.92;;;50.45;;
76731;SDS011;65656;51.130;13.658;2022-12-17T02:08:18;52.38;;;44.25;;
76731;SDS011;65656;51.130;13.658;2022-12-17T02:12:26;62.63;;;56.45;;
76731;SDS011;65656;51.130;13.658;2022-12-17T02:16:34;65.60;;;59.55;;
76731;SDS011;65656;51.130;13.658;2022-12-17T02:20:38;68.85;;;62.83;;
76731;SDS011;65656;51.130;13.658;2022-12-17T02:24:47;58.00;;;52.00;;
76731;SDS011;65656;51.130;13.658;2022-12-17T02:28:57;63.42;;;54.28;;
76731;SDS011;65656;51.130;13.658;2022-12-17T02:33:01;50.40;;;45.28;;
76731;SDS011;65656;51.130;13.658;2022-12-17T02:37:04;64.03;;;57.88;;
76731;SDS011;65656;51.130;13.658;2022-12-17T02:41:05;61.45;;;54.45;;
76731;SDS011;65656;51.130;13.658;2022-12-17T02:45:11;52.53;;;47.63;;
76731;SDS011;65656;51.130;13.658;2022-12-17T02:49:13;100.35;;;93.47;;
76731;SDS011;65656;51.130;13.658;2022-12-17T02:53:15;78.53;;;72.18;;
76731;SDS011;65656;51.130;13.658;2022-12-17T02:57:17;52.60;;;45.30;;
76731;SDS011;65656;51.130;13.658;2022-12-17T03:01:20;59.95;;;52.40;;
76731;SDS011;65656;51.130;13.658;2022-12-17T03:05:22;59.72;;;53.83;;
76731;SDS011;65656;51.130;13.658;2022-12-17T03:09:43;51.00;;;42.78;;
76731;SDS011;65656;51.130;13.658;2022-12-17T03:13:45;60.08;;;54.13;;
76731;SDS011;65656;51.130;13.658;2022-12-17T03:17:48;55.67;;;49.67;;
76731;SDS011;65656;51.130;13.658;2022-12-17T03:21:49;56.90;;;51.03;;
76731;SDS011;65656;51.130;13.658;2022-12-17T03:25:51;62.83;;;55.95;;
76731;SDS011;65656;51.130;13.658;2022-12-17T03:29:52;75.70;;;68.72;;
76731;SDS011;65656;51.130;13.658;2022-12-17T03:33:55;56.33;;;44.85;;
76731;SDS011;65656;51.130;13.658;2022-12-17T03:37:57;52.85;;;47.13;;
76731;SDS011;65656;51.130;13.658;2022-12-17T03:41:58;64.55;;;58.72;;
76731;SDS011;65656;51.130;13.658;2022-12-17T03:46:00;55.70;;;47.15;;
76731;SDS011;65656;51.130;13.658;2022-12-17T03:50:03;59.60;;;54.05;;
76731;SDS011;65656;51.130;13.658;2022-12-17T03:54:05;49.35;;;44.13;;
76731;SDS011;65656;51.130;13.658;2022-12-17T03:58:07;58.42;;;52.60;;
76731;SDS011;65656;51.130;13.658;2022-12-17T04:02:08;64.95;;;59.35;;
76731;SDS011;65656;51.130;13.658;2022-12-17T04:06:11;52.53;;;44.08;;
76731;SDS011;65656;51.130;13.658;2022-12-17T04:10:13;58.88;;;51.47;;
76731;SDS011;65656;51.130;13.658;2022-12-17T04:14:15;50.80;;;45.30;;
76731;SDS011;65656;51.130;13.658;2022-12-17T04:18:16;45.63;;;40.92;;
76731;SDS011;65656;51.130;13.658;2022-12-17T04:22:19;47.35;;;40.97;;
76731;SDS011;65656;51.130;13.658;2022-12-17T04:26:20;48.72;;;43.65;;
76731;SDS011;65656;51.130;13.658;2022-12-17T04:30:22;62.22;;;56.35;;
76731;SDS011;65656;51.130;13.658;2022-12-17T04:34:23;57.85;;;53.08;;
76731;SDS011;65656;51.130;13.658;2022-12-17T04:38:26;67.32;;;60.80;;
76731;SDS011;65656;51.130;13.658;2022-12-17T04:42:28;49.60;;;39.20;;
76731;SDS011;65656;51.130;13.658;2022-12-17T04:46:29;65.68;;;60.05;;
76731;SDS011;65656;51.130;13.658;2022-12-17T04:50:31;54.47;;;47.92;;
76731;SDS011;65656;51.130;13.658;2022-12-17T04:54:34;54.28;;;42.00;;
76731;SDS011;65656;51.130;13.658;2022-12-17T04:58:35;55.90;;;50.20;;
76731;SDS011;65656;51.130;13.658;2022-12-17T05:02:37;58.67;;;52.83;;
76731;SDS011;65656;51.130;13.658;2022-12-17T05:06:43;47.30;;;41.10;;
76731;SDS011;65656;51.130;13.658;2022-12-17T05:10:46;46.63;;;40.53;;
76731;SDS011;65656;51.130;13.658;2022-12-17T05:14:47;50.17;;;44.88;;
76731;SDS011;65656;51.130;13.658;2022-12-17T05:18:49;53.30;;;47.70;;
76731;SDS011;65656;51.130;13.658;2022-12-17T05:22:50;59.10;;;53.13;;
76731;SDS011;65656;51.130;13.658;2022-12-17T05:26:53;57.60;;;50.92;;
76731;SDS011;65656;51.130;13.658;2022-12-17T05:30:57;54.60;;;48.85;;
76731;SDS011;65656;51.130;13.658;2022-12-17T05:34:58;56.42;;;48.40;;
76731;SDS011;65656;51.130;13.658;2022-12-17T05:39:00;68.68;;;61.65;;
76731;SDS011;65656;51.130;13.658;2022-12-17T05:43:03;60.53;;;54.45;;
76731;SDS011;65656;51.130;13.658;2022-12-17T05:47:06;50.88;;;42.58;;
76731;SDS011;65656;51.130;13.658;2022-12-17T05:51:08;60.70;;;54.35;;
76731;SDS011;65656;51.130;13.658;2022-12-17T05:55:10;60.67;;;50.75;;
76731;SDS011;65656;51.130;13.658;2022-12-17T05:59:13;60.83;;;51.95;;
76731;SDS011;65656;51.130;13.658;2022-12-17T06:03:14;49.45;;;39.30;;
76731;SDS011;65656;51.130;13.658;2022-12-17T06:07:16;51.83;;;42.20;;
76731;SDS011;65656;51.130;13.658;2022-12-17T06:11:18;59.78;;;52.45;;
76731;SDS011;65656;51.130;13.658;2022-12-17T06:15:20;56.28;;;48.90;;
76731;SDS011;65656;51.130;13.658;2022-12-17T06:19:22;54.95;;;44.55;;
76731;SDS011;65656;51.130;13.658;2022-12-17T06:23:23;53.72;;;39.88;;
76731;SDS011;65656;51.130;13.658;2022-12-17T06:27:25;47.88;;;40.10;;
76731;SDS011;65656;51.130;13.658;2022-12-17T06:31:28;60.15;;;48.00;;
76731;SDS011;65656;51.130;13.658;2022-12-17T06:35:29;53.70;;;43.53;;
76731;SDS011;65656;51.130;13.658;2022-12-17T06:39:31;60.72;;;53.97;;
76731;SDS011;65656;51.130;13.658;2022-12-17T06:43:33;50.47;;;39.83;;
76731;SDS011;65656;51.130;13.658;2022-12-17T06:47:36;62.40;;;51.67;;
76731;SDS011;65656;51.130;13.658;2022-12-17T06:51:38;55.33;;;40.53;;
76731;SDS011;65656;51.130;13.658;2022-12-17T06:55:39;55.90;;;47.63;;
76731;SDS011;65656;51.130;13.658;2022-12-17T06:59:41;53.08;;;47.38;;
76731;SDS011;65656;51.130;13.658;2022-12-17T07:03:44;67.88;;;46.85;;
76731;SDS011;65656;51.130;13.658;2022-12-17T07:07:45;55.85;;;42.17;;
76731;SDS011;65656;51.130;13.658;2022-12-17T07:11:47;54.20;;;42.72;;
76731;SDS011;65656;51.130;13.658;2022-12-17T07:15:48;62.97;;;49.60;;
76731;SDS011;65656;51.130;13.658;2022-12-17T07:19:52;59.40;;;48.38;;
76731;SDS011;65656;51.130;13.658;2022-12-17T07:23:54;60.63;;;43.92;;
76731;SDS011;65656;51.130;13.658;2022-12-17T07:27:55;67.32;;;51.22;;
76731;SDS011;65656;51.130;13.658;2022-12-17T07:31:57;82.43;;;74.30;;
76731;SDS011;65656;51.130;13.658;2022-12-17T07:36:00;69.38;;;49.88;;
76731;SDS011;65656;51.130;13.658;2022-12-17T07:40:01;65.53;;;49.10;;
76731;SDS011;65656;51.130;13.658;2022-12-17T07:44:03;71.60;;;61.50;;
76731;SDS011;65656;51.130;13.658;2022-12-17T07:48:05;71.60;;;60.08;;
76731;SDS011;65656;51.130;13.658;2022-12-17T07:52:09;69.60;;;45.90;;
76731;SDS011;65656;51.130;13.658;2022-12-17T07:56:10;91.05;;;59.75;;
76731;SDS011;65656;51.130;13.658;2022-12-17T08:00:12;85.18;;;55.83;;
76731;SDS011;65656;51.130;13.658;2022-12-17T08:04:14;67.47;;;59.55;;
76731;SDS011;65656;51.130;13.658;2022-12-17T08:08:17;81.07;;;51.88;;
76731;SDS011;65656;51.130;13.658;2022-12-17T08:12:19;70.03;;;51.17;;
76731;SDS011;65656;51.130;13.658;2022-12-17T08:16:20;75.57;;;60.47;;
76731;SDS011;65656;51.130;13.658;2022-12-17T08:20:22;82.53;;;53.30;;
76731;SDS011;65656;51.130;13.658;2022-12-17T08:24:25;82.95;;;63.08;;
76731;SDS011;65656;51.130;13.658;2022-12-17T08:28:26;80.53;;;57.38;;
76731;SDS011;65656;51.130;13.658;2022-12-17T08:32:48;95.10;;;65.63;;
76731;SDS011;65656;51.130;13.658;2022-12-17T08:36:49;74.65;;;58.08;;
76731;SDS011;65656;51.130;13.658;2022-12-17T08:40:52;73.38;;;53.33;;
76731;SDS011;65656;51.130;13.658;2022-12-17T08:44:54;84.38;;;67.57;;
76731;SDS011;65656;51.130;13.658;2022-12-17T08:48:57;70.88;;;59.72;;
76731;SDS011;65656;51.130;13.658;2022-12-17T08:52:59;69.57;;;56.17;;
76731;SDS011;65656;51.130;13.658;2022-12-17T08:57:03;73.63;;;57.75;;
76731;SDS011;65656;51.130;13.658;2022-12-17T09:01:04;68.22;;;58.20;;
76731;SDS011;65656;51.130;13.658;2022-12-17T09:05:06;80.40;;;52.03;;
76731;SDS011;65656;51.130;13.658;2022-12-17T09:09:08;77.03;;;55.40;;
76731;SDS011;65656;51.130;13.658;2022-12-17T09:13:11;76.47;;;53.97;;
76731;SDS011;65656;51.130;13.658;2022-12-17T09:17:13;72.68;;;51.88;;
76731;SDS011;65656;51.130;13.658;2022-12-17T09:21:14;68.32;;;44.92;;
76731;SDS011;65656;51.130;13.658;2022-12-17T09:25:16;83.03;;;55.47;;
76731;SDS011;65656;51.130;13.658;2022-12-17T09:29:19;83.97;;;56.60;;
76731;SDS011;65656;51.130;13.658;2022-12-17T09:33:20;67.80;;;56.75;;
76731;SDS011;65656;51.130;13.658;2022-12-17T09:37:22;74.65;;;46.28;;
76731;SDS011;65656;51.130;13.658;2022-12-17T09:41:24;67.40;;;45.28;;
76731;SDS011;65656;51.130;13.658;2022-12-17T09:45:30;74.90;;;57.33;;
76731;SDS011;65656;51.130;13.658;2022-12-17T09:49:35;75.50;;;54.17;;
76731;SDS011;65656;51.130;13.658;2022-12-17T09:53:39;59.92;;;38.88;;
76731;SDS011;65656;51.130;13.658;2022-12-17T09:57:44;53.22;;;36.38;;
76731;SDS011;65656;51.130;13.658;2022-12-17T10:01:48;54.42;;;39.70;;
76731;SDS011;65656;51.130;13.658;2022-12-17T10:05:50;68.18;;;45.15;;
76731;SDS011;65656;51.130;13.658;2022-12-17T10:09:51;78.63;;;65.00;;
76731;SDS011;65656;51.130;13.658;2022-12-17T10:13:54;59.17;;;45.47;;
76731;SDS011;65656;51.130;13.658;2022-12-17T10:17:57;71.85;;;48.92;;
76731;SDS011;65656;51.130;13.658;2022-12-17T10:22:06;58.88;;;44.30;;
76731;SDS011;65656;51.130;13.658;2022-12-17T10:26:08;72.38;;;48.03;;
76731;SDS011;65656;51.130;13.658;2022-12-17T10:30:15;77.13;;;43.20;;
76731;SDS011;65656;51.130;13.658;2022-12-17T10:34:19;72.38;;;52.00;;
76731;SDS011;65656;51.130;13.658;2022-12-17T10:38:21;76.95;;;58.17;;
76731;SDS011;65656;51.130;13.658;2022-12-17T10:42:26;82.63;;;67.47;;
76731;SDS011;65656;51.130;13.658;2022-12-17T10:46:34;71.53;;;52.97;;
76731;SDS011;65656;51.130;13.658;2022-12-17T10:50:39;81.82;;;48.92;;
76731;SDS011;65656;51.130;13.658;2022-12-17T10:54:41;82.60;;;58.67;;
76731;SDS011;65656;51.130;13.658;2022-12-17T10:58:50;87.35;;;49.40;;
76731;SDS011;65656;51.130;13.658;2022-12-17T11:02:54;74.80;;;44.63;;
76731;SDS011;65656;51.130;13.658;2022-12-17T11:06:57;82.78;;;51.40;;
76731;SDS011;65656;51.130;13.658;2022-12-17T11:10:58;78.22;;;48.75;;
76731;SDS011;65656;51.130;13.658;2022-12-17T11:15:06;78.47;;;48.17;;
76731;SDS011;65656;51.130;13.658;2022-12-17T11:19:20;86.43;;;56.10;;
76731;SDS011;65656;51.130;13.658;2022-12-17T11:23:32;90.93;;;54.45;;
76731;SDS011;65656;51.130;13.658;2022-12-17T11:27:39;81.72;;;57.17;;
76731;SDS011;65656;51.130;13.658;2022-12-17T11:31:50;80.05;;;43.83;;
76731;SDS011;65656;51.130;13.658;2022-12-17T11:36:04;99.10;;;63.83;;
76731;SDS011;65656;51.130;13.658;2022-12-17T11:40:17;69.78;;;53.53;;
76731;SDS011;65656;51.130;13.658;2022-12-17T11:44:31;75.55;;;46.88;;
76731;SDS011;65656;51.130;13.658;2022-12-17T11:48:44;87.65;;;50.15;;
76731;SDS011;65656;51.130;13.658;2022-12-17T11:52:48;81.15;;;54.20;;
76731;SDS011;65656;51.130;13.658;2022-12-17T11:56:56;67.55;;;45.58;;
76731;SDS011;65656;51.130;13.658;2022-12-17T12:01:06;73.80;;;51.63;;
76731;SDS011;65656;51.130;13.658;2022-12-17T12:05:17;73.90;;;55.35;;
76731;SDS011;65656;51.130;13.658;2022-12-17T12:09:25;65.97;;;45.05;;
76731;SDS011;65656;51.130;13.658;2022-12-17T12:13:36;72.68;;;43.53;;
76731;SDS011;65656;51.130;13.658;2022-12-17T12:17:45;63.58;;;45.67;;
76731;SDS011;65656;51.130;13.658;2022-12-17T12:21:53;60.72;;;43.85;;
76731;SDS011;65656;51.130;13.658;2022-12-17T12:26:00;61.97;;;50.28;;
76731;SDS011;65656;51.130;13.658;2022-12-17T12:30:12;58.50;;;37.40;;
76731;SDS011;65656;51.130;13.658;2022-12-17T12:34:17;56.95;;;40.30;;
76731;SDS011;65656;51.130;13.658;2022-12-17T12:38:24;59.65;;;41.80;;
76731;SDS011;65656;51.130;13.658;2022-12-17T12:42:31;55.95;;;48.10;;
76731;SDS011;65656;51.130;13.658;2022-12-17T12:46:42;54.53;;;38.83;;
76731;SDS011;65656;51.130;13.658;2022-12-17T12:50:49;55.28;;;45.78;;
76731;SDS011;65656;51.130;13.658;2022-12-17T12:54:58;60.45;;;43.50;;
76731;SDS011;65656;51.130;13.658;2022-12-17T12:59:08;51.33;;;35.63;;
76731;SDS011;65656;51.130;13.658;2022-12-17T13:03:16;54.10;;;38.22;;
76731;SDS011;65656;51.130;13.658;2022-12-17T13:07:30;55.90;;;38.38;;
76731;SDS011;65656;51.130;13.658;2022-12-17T13:11:35;43.72;;;35.78;;
76731;SDS011;65656;51.130;13.658;2022-12-17T13:15:39;56.40;;;36.60;;
76731;SDS011;65656;51.130;13.658;2022-12-17T13:24:08;48.25;;;41.83;;
76731;SDS011;65656;51.130;13.658;2022-12-17T13:28:24;57.75;;;37.10;;
76731;SDS011;65656;51.130;13.658;2022-12-17T13:32:27;59.05;;;43.13;;
76731;SDS011;65656;51.130;13.658;2022-12-17T13:36:37;48.30;;;37.47;;
76731;SDS011;65656;51.130;13.658;2022-12-17T13:45:11;47.03;;;38.95;;
76731;SDS011;65656;51.130;13.658;2022-12-17T13:49:16;48.28;;;37.63;;
76731;SDS011;65656;51.130;13.658;2022-12-17T13:53:20;44.72;;;33.00;;
76731;SDS011;65656;51.130;13.658;2022-12-17T13:57:23;50.33;;;37.15;;
76731;SDS011;65656;51.130;13.658;2022-12-17T14:01:25;57.30;;;48.88;;
76731;SDS011;65656;51.130;13.658;2022-12-17T14:05:29;50.65;;;38.92;;
76731;SDS011;65656;51.130;13.658;2022-12-17T14:09:36;44.88;;;35.85;;
76731;SDS011;65656;51.130;13.658;2022-12-17T14:13:40;45.58;;;35.50;;
76731;SDS011;65656;51.130;13.658;2022-12-17T14:17:43;48.83;;;43.63;;
76731;SDS011;65656;51.130;13.658;2022-12-17T14:21:46;46.10;;;37.38;;
76731;SDS011;65656;51.130;13.658;2022-12-17T14:25:50;32.05;;;23.08;;
76731;SDS011;65656;51.130;13.658;2022-12-17T14:29:51;42.63;;;30.80;;
76731;SDS011;65656;51.130;13.658;2022-12-17T14:33:58;45.95;;;37.88;;
76731;SDS011;65656;51.130;13.658;2022-12-17T14:38:01;38.30;;;29.90;;
76731;SDS011;65656;51.130;13.658;2022-12-17T14:42:12;41.17;;;31.45;;
76731;SDS011;65656;51.130;13.658;2022-12-17T14:46:16;30.35;;;25.10;;
76731;SDS011;65656;51.130;13.658;2022-12-17T14:50:28;38.47;;;34.47;;
76731;SDS011;65656;51.130;13.658;2022-12-17T14:54:32;48.17;;;43.33;;
76731;SDS011;65656;51.130;13.658;2022-12-17T14:58:43;33.40;;;28.20;;
76731;SDS011;65656;51.130;13.658;2022-12-17T15:02:45;42.75;;;36.72;;
76731;SDS011;65656;51.130;13.658;2022-12-17T15:06:52;40.25;;;36.53;;
76731;SDS011;65656;51.130;13.658;2022-12-17T15:10:54;37.15;;;31.00;;
76731;SDS011;65656;51.130;13.658;2022-12-17T15:14:57;41.97;;;36.25;;
76731;SDS011;65656;51.130;13.658;2022-12-17T15:18:58;39.58;;;34.22;;
76731;SDS011;65656;51.130;13.658;2022-12-17T15:23:00;47.30;;;43.22;;
76731;SDS011;65656;51.130;13.658;2022-12-17T15:27:02;31.95;;;23.40;;
76731;SDS011;65656;51.130;13.658;2022-12-17T15:31:05;40.95;;;30.52;;
76731;SDS011;65656;51.130;13.658;2022-12-17T15:35:07;36.25;;;31.10;;
76731;SDS011;65656;51.130;13.658;2022-12-17T15:39:09;37.80;;;27.20;;
76731;SDS011;65656;51.130;13.658;2022-12-17T15:43:11;34.63;;;29.80;;
76731;SDS011;65656;51.130;13.658;2022-12-17T15:47:14;40.72;;;37.35;;
76731;SDS011;65656;51.130;13.658;2022-12-17T15:51:16;46.90;;;42.75;;
76731;SDS011;65656;51.130;13.658;2022-12-17T15:55:20;31.30;;;28.58;;
76731;SDS011;65656;51.130;13.658;2022-12-17T15:59:21;41.17;;;37.55;;
76731;SDS011;65656;51.130;13.658;2022-12-17T16:03:24;40.28;;;36.45;;
76731;SDS011;65656;51.130;13.658;2022-12-17T16:07:26;39.85;;;36.17;;
76731;SDS011;65656;51.130;13.658;2022-12-17T16:11:27;39.85;;;36.00;;
76731;SDS011;65656;51.130;13.658;2022-12-17T16:15:29;56.88;;;52.60;;
76731;SDS011;65656;51.130;13.658;2022-12-17T16:19:32;35.83;;;32.58;;
76731;SDS011;65656;51.130;13.658;2022-12-17T16:23:34;28.83;;;23.80;;
76731;SDS011;65656;51.130;13.658;2022-12-17T16:27:35;31.27;;;28.13;;
76731;SDS011;65656;51.130;13.658;2022-12-17T16:31:37;40.03;;;36.33;;
76731;SDS011;65656;51.130;13.658;2022-12-17T16:35:40;34.90;;;31.52;;
76731;SDS011;65656;51.130;13.658;2022-12-17T16:39:42;22.45;;;17.10;;
76731;SDS011;65656;51.130;13.658;2022-12-17T16:43:44;55.78;;;52.33;;
76731;SDS011;65656;51.130;13.658;2022-12-17T16:47:46;42.92;;;39.17;;
76731;SDS011;65656;51.130;13.658;2022-12-17T16:51:49;42.20;;;33.45;;
76731;SDS011;65656;51.130;13.658;2022-12-17T16:55:52;44.53;;;41.10;;
76731;SDS011;65656;51.130;13.658;2022-12-17T16:59:53;56.65;;;52.65;;
76731;SDS011;65656;51.130;13.658;2022-12-17T17:03:55;37.10;;;34.08;;
76731;SDS011;65656;51.130;13.658;2022-12-17T17:07:58;40.90;;;37.42;;
76731;SDS011;65656;51.130;13.658;2022-12-17T17:12:00;45.90;;;41.45;;
76731;SDS011;65656;51.130;13.658;2022-12-17T17:16:02;37.00;;;33.90;;
76731;SDS011;65656;51.130;13.658;2022-12-17T17:20:04;47.05;;;42.70;;
76731;SDS011;65656;51.130;13.658;2022-12-17T17:24:09;35.00;;;31.45;;
76731;SDS011;65656;51.130;13.658;2022-12-17T17:28:20;44.70;;;41.25;;
76731;SDS011;65656;51.130;13.658;2022-12-17T17:32:21;38.67;;;35.28;;
76731;SDS011;65656;51.130;13.658;2022-12-17T17:36:24;32.58;;;27.52;;
76731;SDS011;65656;51.130;13.658;2022-12-17T17:40:28;33.70;;;30.77;;
76731;SDS011;65656;51.130;13.658;2022-12-17T17:44:29;43.83;;;39.42;;
76731;SDS011;65656;51.130;13.658;2022-12-17T17:48:31;39.58;;;35.55;;
76731;SDS011;65656;51.130;13.658;2022-12-17T17:52:33;26.92;;;24.13;;
76731;SDS011;65656;51.130;13.658;2022-12-17T17:56:36;31.75;;;28.77;;
76731;SDS011;65656;51.130;13.658;2022-12-17T18:00:39;30.35;;;27.33;;
76731;SDS011;65656;51.130;13.658;2022-12-17T18:04:41;42.97;;;39.65;;
76731;SDS011;65656;51.130;13.658;2022-12-17T18:08:42;31.30;;;28.08;;
76731;SDS011;65656;51.130;13.658;2022-12-17T18:12:46;39.83;;;35.83;;
76731;SDS011;65656;51.130;13.658;2022-12-17T18:16:47;31.88;;;28.55;;
76731;SDS011;65656;51.130;13.658;2022-12-17T18:20:49;28.95;;;26.10;;
76731;SDS011;65656;51.130;13.658;2022-12-17T18:25:02;30.83;;;27.98;;
76731;SDS011;65656;51.130;13.658;2022-12-17T18:29:07;42.65;;;39.50;;
76731;SDS011;65656;51.130;13.658;2022-12-17T18:33:10;32.53;;;29.48;;
76731;SDS011;65656;51.130;13.658;2022-12-17T18:37:11;44.45;;;41.13;;
76731;SDS011;65656;51.130;13.658;2022-12-17T18:41:13;54.13;;;46.78;;
76731;SDS011;65656;51.130;13.658;2022-12-17T18:45:17;53.80;;;48.05;;
76731;SDS011;65656;51.130;13.658;2022-12-17T18:49:19;45.30;;;36.40;;
76731;SDS011;65656;51.130;13.658;2022-12-17T18:53:23;52.80;;;47.90;;
76731;SDS011;65656;51.130;13.658;2022-12-17T18:57:24;54.63;;;50.30;;
76731;SDS011;65656;51.130;13.658;2022-12-17T19:01:28;40.70;;;37.00;;
76731;SDS011;65656;51.130;13.658;2022-12-17T19:05:31;39.60;;;35.97;;
76731;SDS011;65656;51.130;13.658;2022-12-17T19:09:33;37.45;;;33.13;;
76731;SDS011;65656;51.130;13.658;2022-12-17T19:13:35;32.72;;;29.38;;
76731;SDS011;65656;51.130;13.658;2022-12-17T19:17:38;56.10;;;51.53;;
76731;SDS011;65656;51.130;13.658;2022-12-17T19:21:39;55.60;;;50.53;;
76731;SDS011;65656;51.130;13.658;2022-12-17T19:25:42;37.17;;;33.40;;
76731;SDS011;65656;51.130;13.658;2022-12-17T19:29:43;60.38;;;55.17;;
76731;SDS011;65656;51.130;13.658;2022-12-17T19:33:53;50.00;;;38.13;;
76731;SDS011;65656;51.130;13.658;2022-12-17T19:37:56;47.47;;;38.90;;
76731;SDS011;65656;51.130;13.658;2022-12-17T19:41:57;38.03;;;30.80;;
76731;SDS011;65656;51.130;13.658;2022-12-17T19:46:00;42.30;;;37.03;;
76731;SDS011;65656;51.130;13.658;2022-12-17T19:50:06;63.38;;;58.38;;
76731;SDS011;65656;51.130;13.658;2022-12-17T19:54:08;52.22;;;40.45;;
76731;SDS011;65656;51.130;13.658;2022-12-17T19:58:10;36.80;;;33.00;;
76731;SDS011;65656;51.130;13.658;2022-12-17T20:02:12;37.22;;;33.60;;
76731;SDS011;65656;51.130;13.658;2022-12-17T20:06:15;54.08;;;46.88;;
76731;SDS011;65656;51.130;13.658;2022-12-17T20:10:18;32.00;;;27.77;;
76731;SDS011;65656;51.130;13.658;2022-12-17T20:14:20;38.85;;;35.15;;
76731;SDS011;65656;51.130;13.658;2022-12-17T20:18:22;47.72;;;43.22;;
76731;SDS011;65656;51.130;13.658;2022-12-17T20:22:25;42.90;;;35.65;;
76731;SDS011;65656;51.130;13.658;2022-12-17T20:26:27;46.10;;;41.63;;
76731;SDS011;65656;51.130;13.658;2022-12-17T20:30:28;39.25;;;35.22;;
76731;SDS011;65656;51.130;13.658;2022-12-17T20:34:30;54.90;;;50.13;;
76731;SDS011;65656;51.130;13.658;2022-12-17T20:38:33;59.97;;;54.63;;
76731;SDS011;65656;51.130;13.658;2022-12-17T20:42:38;58.15;;;52.72;;
76731;SDS011;65656;51.130;13.658;2022-12-17T20:46:39;52.47;;;46.08;;
76731;SDS011;65656;51.130;13.658;2022-12-17T20:50:41;60.13;;;52.55;;
76731;SDS011;65656;51.130;13.658;2022-12-17T20:54:44;48.33;;;39.50;;
76731;SDS011;65656;51.130;13.658;2022-12-17T20:58:46;49.50;;;44.38;;
76731;SDS011;65656;51.130;13.658;2022-12-17T21:02:51;54.35;;;43.47;;
76731;SDS011;65656;51.130;13.658;2022-12-17T21:06:53;43.95;;;39.47;;
76731;SDS011;65656;51.130;13.658;2022-12-17T21:10:56;52.45;;;44.63;;
76731;SDS011;65656;51.130;13.658;2022-12-17T21:14:58;61.40;;;55.90;;
76731;SDS011;65656;51.130;13.658;2022-12-17T21:19:00;40.95;;;37.50;;
76731;SDS011;65656;51.130;13.658;2022-12-17T21:23:02;49.05;;;44.78;;
76731;SDS011;65656;51.130;13.658;2022-12-17T21:27:05;32.30;;;28.23;;
76731;SDS011;65656;51.130;13.658;2022-12-17T21:31:15;49.78;;;45.38;;
76731;SDS011;65656;51.130;13.658;2022-12-17T21:35:18;38.63;;;32.97;;
76731;SDS011;65656;51.130;13.658;2022-12-17T21:39:19;61.40;;;56.92;;
76731;SDS011;65656;51.130;13.658;2022-12-17T21:43:22;41.20;;;37.85;;
76731;SDS011;65656;51.130;13.658;2022-12-17T21:47:24;31.13;;;26.00;;
76731;SDS011;65656;51.130;13.658;2022-12-17T21:51:26;39.95;;;34.75;;
76731;SDS011;65656;51.130;13.658;2022-12-17T21:55:28;37.83;;;34.40;;
76731;SDS011;65656;51.130;13.658;2022-12-17T21:59:31;55.30;;;50.35;;
76731;SDS011;65656;51.130;13.658;2022-12-17T22:03:33;45.75;;;40.80;;
76731;SDS011;65656;51.130;13.658;2022-12-17T22:07:34;52.88;;;47.92;;
76731;SDS011;65656;51.130;13.658;2022-12-17T22:11:52;58.25;;;49.35;;
76731;SDS011;65656;51.130;13.658;2022-12-17T22:15:55;66.97;;;61.33;;
76731;SDS011;65656;51.130;13.658;2022-12-17T22:19:58;60.88;;;54.83;;
76731;SDS011;65656;51.130;13.658;2022-12-17T22:23:59;74.70;;;69.15;;
76731;SDS011;65656;51.130;13.658;2022-12-17T22:28:01;53.50;;;48.50;;
76731;SDS011;65656;51.130;13.658;2022-12-17T22:32:04;53.47;;;47.58;;
76731;SDS011;65656;51.130;13.658;2022-12-17T22:36:07;62.13;;;57.10;;
76731;SDS011;65656;51.130;13.658;2022-12-17T22:40:31;49.75;;;44.88;;
76731;SDS011;65656;51.130;13.658;2022-12-17T22:44:53;41.70;;;37.47;;
76731;SDS011;65656;51.130;13.658;2022-12-17T22:49:02;50.60;;;39.67;;
76731;SDS011;65656;51.130;13.658;2022-12-17T22:53:04;46.97;;;41.50;;
76731;SDS011;65656;51.130;13.658;2022-12-17T22:57:06;43.78;;;40.08;;
76731;SDS011;65656;51.130;13.658;2022-12-17T23:01:27;43.53;;;39.00;;
76731;SDS011;65656;51.130;13.658;2022-12-17T23:05:31;42.38;;;37.85;;
76731;SDS011;65656;51.130;13.658;2022-12-17T23:09:32;35.90;;;32.10;;
76731;SDS011;65656;51.130;13.658;2022-12-17T23:13:34;56.83;;;52.28;;
76731;SDS011;65656;51.130;13.658;2022-12-17T23:17:37;46.75;;;42.13;;
76731;SDS011;65656;51.130;13.658;2022-12-17T23:21:40;39.80;;;36.03;;
76731;SDS011;65656;51.130;13.658;2022-12-17T23:25:41;57.92;;;52.80;;
76731;SDS011;65656;51.130;13.658;2022-12-17T23:29:43;66.00;;;61.25;;
76731;SDS011;65656;51.130;13.658;2022-12-17T23:33:44;41.03;;;36.25;;